Time;durP1;ratioP1;P1;durP2;ratioP2;P2;SDS_P1;SDS_P2;PMS_P1;PMS_P2;Temp;Humidity;BMP_temperature;BMP_pressure;BME280_temperature;BME280_humidity;BME280_pressure;Samples;Min_cycle;Max_cycle;Signal;HPM_P1;HPM_P2
2021/06/23 00:00:10;;;;;;;8.57;4.00;;;18.80;99.90;;;;;;5622082;22;20484;-48
2021/06/23 00:18:09;;;;;;;6.30;4.70;;;18.80;99.90;;;;;;5108945;28;20489;-46
2021/06/23 00:28:22;;;;;;;5.60;4.73;;;18.70;99.90;;;;;;5537216;22;20463;-45
2021/06/23 00:49:18;;;;;;;6.10;5.30;;;18.50;99.90;;;;;;6277052;22;20466;-46
2021/06/23 01:02:06;;;;;;;7.30;4.80;;;18.40;99.90;;;;;;5447934;22;20487;-45
2021/06/23 05:29:49;;;;;;;11.33;6.03;;;20.20;99.90;;;;;;6066426;22;20540;-48
2021/06/23 05:32:16;;;;;;;9.87;5.40;;;20.30;99.90;;;;;;5112280;28;20877;-48
2021/06/23 05:34:42;;;;;;;11.97;6.53;;;20.30;99.90;;;;;;5107448;28;20878;-46
2021/06/23 05:37:09;;;;;;;7.50;5.00;;;20.30;99.90;;;;;;5094378;28;20891;-44
2021/06/23 05:39:36;;;;;;;21.17;8.43;;;20.50;99.90;;;;;;5097247;28;20437;-48
2021/06/23 05:42:04;;;;;;;8.97;6.33;;;20.60;99.90;;;;;;5105894;28;20473;-48
2021/06/23 05:44:31;;;;;;;10.57;6.40;;;20.60;99.90;;;;;;5103455;28;20455;-45
2021/06/23 05:46:59;;;;;;;11.40;6.30;;;20.60;99.90;;;;;;5103683;28;20527;-44
2021/06/23 05:49:26;;;;;;;13.27;6.30;;;20.60;99.90;;;;;;5105674;28;21116;-44
2021/06/23 05:51:53;;;;;;;10.70;6.33;;;20.60;99.90;;;;;;5105139;28;20510;-46
2021/06/23 05:54:20;;;;;;;14.00;6.60;;;20.70;99.90;;;;;;5102586;28;20461;-47
2021/06/23 05:56:47;;;;;;;10.17;5.70;;;20.80;99.90;;;;;;5117784;28;20850;-48
2021/06/23 05:59:13;;;;;;;10.67;5.30;;;20.80;99.90;;;;;;5118077;28;20472;-49
2021/06/23 06:01:40;;;;;;;7.23;5.73;;;20.90;99.90;;;;;;5118467;28;20487;-47
2021/06/23 06:04:08;;;;;;;14.70;6.60;;;20.90;99.90;;;;;;5118681;28;20831;-50
2021/06/23 06:06:35;;;;;;;8.73;5.57;;;20.90;99.90;;;;;;5104766;28;20445;-47
2021/06/23 06:09:02;;;;;;;9.20;5.63;;;20.90;99.90;;;;;;5096655;28;20422;-46
2021/06/23 06:11:29;;;;;;;7.33;4.77;;;20.90;99.90;;;;;;5109102;28;20437;-45
2021/06/23 06:13:56;;;;;;;9.77;5.53;;;20.90;99.90;;;;;;5117010;28;20448;-49
2021/06/23 06:16:23;;;;;;;9.10;5.37;;;20.80;99.90;;;;;;5117562;28;20440;-44
2021/06/23 06:18:49;;;;;;;11.37;4.87;;;20.90;99.90;;;;;;5117873;28;20463;-48
2021/06/23 06:21:17;;;;;;;6.67;5.20;;;20.90;99.90;;;;;;5118186;28;20449;-49
2021/06/23 06:23:44;;;;;;;6.20;4.87;;;20.90;99.90;;;;;;5118021;28;20440;-44
2021/06/23 06:26:11;;;;;;;7.43;5.23;;;21.00;99.90;;;;;;5115900;28;20471;-46
2021/06/23 06:28:39;;;;;;;5.20;4.17;;;21.00;99.90;;;;;;5116275;28;20448;-52
2021/06/23 06:31:06;;;;;;;5.90;4.93;;;21.10;99.90;;;;;;5116211;28;20468;-45
2021/06/23 06:33:33;;;;;;;7.77;5.77;;;21.20;99.90;;;;;;5117836;28;20836;-45
2021/06/23 06:36:00;;;;;;;7.10;5.10;;;21.00;99.90;;;;;;5117601;28;20456;-51
2021/06/23 06:38:28;;;;;;;9.20;5.40;;;21.10;99.90;;;;;;5117688;28;20772;-50
2021/06/23 06:40:55;;;;;;;7.73;5.20;;;21.10;99.90;;;;;;5117723;28;20441;-45
2021/06/23 06:43:22;;;;;;;11.97;5.57;;;21.10;99.90;;;;;;5117264;28;20480;-48
2021/06/23 06:45:50;;;;;;;6.80;4.30;;;21.30;99.90;;;;;;5117291;28;20451;-45
2021/06/23 06:48:18;;;;;;;7.53;5.87;;;21.30;99.90;;;;;;5116937;28;20444;-48
2021/06/23 06:50:45;;;;;;;8.30;5.97;;;21.40;99.90;;;;;;5117004;28;20924;-48
2021/06/23 06:53:12;;;;;;;7.73;5.30;;;21.50;99.90;;;;;;5117232;28;20457;-48
2021/06/23 06:55:40;;;;;;;7.20;4.53;;;21.50;99.90;;;;;;5117215;28;20825;-52
2021/06/23 06:58:07;;;;;;;10.03;5.00;;;21.70;99.90;;;;;;5116959;28;20447;-48
2021/06/23 07:00:34;;;;;;;8.23;5.40;;;21.80;99.90;;;;;;5116835;28;20509;-48
2021/06/23 07:03:01;;;;;;;8.33;5.10;;;21.80;99.90;;;;;;5117096;28;20476;-44
2021/06/23 07:05:27;;;;;;;16.53;5.60;;;22.00;99.90;;;;;;5117074;28;20436;-47
2021/06/23 07:07:54;;;;;;;6.00;4.73;;;22.30;99.90;;;;;;5115586;28;20472;-52
2021/06/23 07:10:21;;;;;;;5.97;5.20;;;22.40;99.90;;;;;;5116823;28;20493;-49
2021/06/23 07:12:49;;;;;;;10.10;5.50;;;22.40;99.90;;;;;;5116552;28;20475;-49
2021/06/23 07:15:16;;;;;;;8.10;5.60;;;22.50;99.90;;;;;;5116515;28;20940;-46
2021/06/23 07:17:43;;;;;;;10.37;7.00;;;22.50;99.90;;;;;;5116513;28;20556;-48
2021/06/23 07:20:11;;;;;;;7.23;5.00;;;22.70;99.90;;;;;;5116763;28;20753;-50
2021/06/23 07:22:38;;;;;;;9.77;5.00;;;23.40;99.90;;;;;;5115936;28;20476;-51
2021/06/23 07:25:05;;;;;;;8.57;4.60;;;24.50;99.90;;;;;;5116296;28;20801;-48
2021/06/23 07:27:32;;;;;;;8.50;5.10;;;25.60;99.90;;;;;;5115873;28;20942;-48
2021/06/23 07:30:00;;;;;;;9.30;4.87;;;26.60;99.90;;;;;;5116042;28;20545;-47
2021/06/23 07:32:29;;;;;;;14.17;5.10;;;27.30;98.50;;;;;;5115951;28;20811;-46
2021/06/23 07:37:37;;;;;;;5.37;4.07;;;28.70;92.30;;;;;;5116148;28;20496;-50
2021/06/23 07:40:04;;;;;;;8.20;4.70;;;28.90;90.40;;;;;;5116035;28;20440;-47
2021/06/23 07:42:31;;;;;;;9.10;4.13;;;28.90;87.70;;;;;;5115700;28;20487;-49
2021/06/23 07:45:01;;;;;;;13.13;4.93;;;28.80;86.60;;;;;;5115864;28;20455;-52
2021/06/23 07:47:31;;;;;;;6.20;4.50;;;28.40;85.00;;;;;;5115686;28;20498;-50
2021/06/23 07:49:58;;;;;;;6.77;4.50;;;28.20;84.20;;;;;;5115684;28;20880;-49
2021/06/23 07:52:36;;;;;;;9.00;5.30;;;27.80;84.20;;;;;;5115495;28;20948;-47
2021/06/23 07:55:13;;;;;;;8.03;5.37;;;27.40;85.70;;;;;;5115547;28;20452;-48
2021/06/23 08:08:51;;;;;;;8.60;5.17;;;26.30;89.70;;;;;;5115181;28;20477;-48
2021/06/23 08:11:19;;;;;;;8.20;4.10;;;26.10;90.50;;;;;;5115411;28;20452;-50
2021/06/23 08:13:51;;;;;;;5.43;3.70;;;26.00;90.40;;;;;;5115352;28;20440;-48
2021/06/23 08:16:19;;;;;;;5.30;3.80;;;25.80;90.30;;;;;;5115253;28;20934;-47
2021/06/23 08:18:47;;;;;;;5.37;3.90;;;25.60;90.70;;;;;;5115028;28;20754;-47
2021/06/23 08:21:16;;;;;;;11.13;4.80;;;25.60;90.70;;;;;;5115163;28;20515;-47
2021/06/23 08:23:42;;;;;;;13.30;5.00;;;25.80;90.20;;;;;;5115123;28;20859;-52
2021/06/23 08:26:09;;;;;;;12.10;7.33;;;26.20;89.00;;;;;;5115137;28;20452;-50
2021/06/23 08:28:37;;;;;;;7.73;3.73;;;26.50;88.60;;;;;;5114886;28;20449;-46
2021/06/23 08:31:04;;;;;;;9.97;3.87;;;26.90;86.80;;;;;;5114800;28;20480;-47
2021/06/23 08:33:32;;;;;;;5.57;3.57;;;27.00;83.50;;;;;;5114802;28;20444;-47
2021/06/23 08:35:59;;;;;;;5.30;3.80;;;27.30;83.00;;;;;;5114723;28;20916;-45
2021/06/23 08:38:26;;;;;;;10.23;4.83;;;27.30;81.00;;;;;;5115026;28;20777;-46
2021/06/23 08:40:52;;;;;;;12.30;4.20;;;27.00;81.00;;;;;;5114924;28;20471;-45
2021/06/23 08:43:21;;;;;;;11.30;4.00;;;26.60;83.30;;;;;;5114847;28;20468;-50
2021/06/23 08:45:48;;;;;;;9.87;4.20;;;26.40;84.70;;;;;;5114915;28;20904;-49
2021/06/23 08:48:16;;;;;;;6.00;3.70;;;26.00;84.20;;;;;;5114299;28;20464;-48
2021/06/23 08:50:44;;;;;;;7.67;3.20;;;25.70;82.50;;;;;;5114819;28;20440;-48
2021/06/23 08:53:12;;;;;;;7.83;3.70;;;25.40;84.80;;;;;;5114471;28;20452;-46
2021/06/23 08:55:39;;;;;;;7.93;4.00;;;25.30;85.00;;;;;;5114706;28;20505;-49
2021/06/23 08:58:06;;;;;;;6.33;3.70;;;25.40;85.50;;;;;;5114349;28;20452;-45
2021/06/23 09:00:33;;;;;;;5.43;3.23;;;25.50;85.50;;;;;;5115039;28;20818;-49
2021/06/23 09:03:02;;;;;;;4.67;3.53;;;25.40;85.30;;;;;;5114390;28;20469;-48
2021/06/23 09:05:51;;;;;;;6.73;3.60;;;25.30;84.80;;;;;;5114473;28;20745;-48
2021/06/23 09:08:33;;;;;;;4.03;3.07;;;25.10;86.10;;;;;;5114864;28;20439;-47
2021/06/23 09:11:00;;;;;;;7.97;4.40;;;25.10;87.80;;;;;;5114368;28;20455;-50
2021/06/23 09:13:28;;;;;;;3.93;3.40;;;25.30;86.50;;;;;;5114583;28;20444;-49
2021/06/23 09:15:57;;;;;;;5.40;3.63;;;25.40;87.00;;;;;;5114484;28;20463;-49
2021/06/23 09:18:26;;;;;;;9.37;3.60;;;25.30;85.70;;;;;;5114311;28;20448;-49
2021/06/23 09:20:55;;;;;;;13.50;3.63;;;24.90;86.80;;;;;;5114337;28;20509;-47
2021/06/23 09:23:41;;;;;;;8.20;3.77;;;24.50;88.40;;;;;;5114461;28;20472;-46
2021/06/23 09:26:09;;;;;;;18.93;4.43;;;24.20;89.10;;;;;;5114101;28;20912;-45
2021/06/23 09:28:36;;;;;;;7.90;4.13;;;23.90;90.10;;;;;;5114546;28;20453;-46
2021/06/23 09:31:06;;;;;;;11.03;4.13;;;23.70;90.20;;;;;;5116163;28;20862;-45
2021/06/23 09:33:32;;;;;;;9.30;3.60;;;23.80;91.00;;;;;;5118228;28;20447;-52
2021/06/23 09:36:02;;;;;;;9.70;3.83;;;24.30;90.40;;;;;;5118134;28;20505;-46
2021/06/23 09:38:53;;;;;;;9.50;4.10;;;25.30;88.30;;;;;;5117973;28;20917;-48
2021/06/23 09:41:25;;;;;;;4.60;3.53;;;26.50;82.80;;;;;;5118113;28;20543;-50
2021/06/23 09:43:53;;;;;;;9.20;3.30;;;27.30;82.40;;;;;;5118059;28;20804;-52
2021/06/23 09:46:23;;;;;;;5.20;3.13;;;27.80;76.60;;;;;;5117998;28;20758;-50
2021/06/23 09:48:52;;;;;;;9.23;3.60;;;28.00;75.10;;;;;;5117810;28;20522;-47
2021/06/23 09:51:22;;;;;;;5.50;3.27;;;28.30;73.70;;;;;;5117919;28;20847;-47
2021/06/23 09:53:50;;;;;;;8.23;3.40;;;28.20;72.00;;;;;;5118086;28;20420;-46
2021/06/23 09:56:33;;;;;;;8.13;3.33;;;28.30;73.90;;;;;;5117957;28;20451;-51
2021/06/23 09:59:00;;;;;;;6.23;3.47;;;28.30;72.70;;;;;;5117784;28;20459;-49
2021/06/23 10:01:30;;;;;;;4.63;3.60;;;28.10;72.10;;;;;;5117300;28;20450;-44
2021/06/23 10:04:00;;;;;;;5.93;3.73;;;27.70;72.50;;;;;;5117760;28;20948;-49
2021/06/23 10:06:29;;;;;;;5.60;3.17;;;27.30;71.00;;;;;;5117777;28;20451;-47
2021/06/23 10:09:18;;;;;;;8.53;3.57;;;27.00;73.00;;;;;;5117511;28;20444;-49
2021/06/23 10:11:45;;;;;;;9.03;4.27;;;26.90;75.00;;;;;;5117626;28;20447;-47
2021/06/23 10:14:12;;;;;;;8.13;3.63;;;26.70;74.40;;;;;;5117310;28;20440;-49
2021/06/23 10:16:39;;;;;;;6.10;3.70;;;26.70;75.10;;;;;;5117560;28;20494;-50
2021/06/23 10:19:07;;;;;;;6.40;3.77;;;26.80;74.90;;;;;;5117637;28;20448;-49
2021/06/23 10:21:36;;;;;;;7.20;4.03;;;26.90;75.10;;;;;;5117374;28;20440;-46
2021/06/23 10:24:04;;;;;;;7.00;3.63;;;26.70;74.40;;;;;;5117678;28;20472;-46
2021/06/23 10:26:31;;;;;;;7.57;4.33;;;26.60;75.30;;;;;;5117529;28;20448;-47
2021/06/23 10:28:59;;;;;;;4.53;3.60;;;26.40;75.20;;;;;;5117542;28;20505;-51
2021/06/23 10:31:28;;;;;;;5.23;3.87;;;26.20;75.20;;;;;;5116939;28;20476;-47
2021/06/23 10:33:55;;;;;;;11.30;4.57;;;26.00;76.50;;;;;;5117018;28;20440;-49
2021/06/23 10:36:24;;;;;;;6.90;3.53;;;25.80;77.90;;;;;;5117243;28;20448;-49
2021/06/23 10:38:53;;;;;;;7.77;4.40;;;25.70;78.40;;;;;;5116714;28;20900;-52
2021/06/23 10:41:21;;;;;;;7.13;4.00;;;25.40;79.20;;;;;;5116209;28;20483;-50
2021/06/23 10:44:20;;;;;;;6.90;4.00;;;25.00;80.00;;;;;;5116455;28;20815;-47
2021/06/23 10:46:50;;;;;;;15.40;4.97;;;24.60;80.00;;;;;;5116830;28;20440;-51
2021/06/23 10:49:18;;;;;;;5.33;4.10;;;24.20;82.40;;;;;;5116928;28;20459;-47
2021/06/23 10:51:47;;;;;;;8.83;5.67;;;24.10;84.20;;;;;;5116985;28;20532;-45
2021/06/23 10:54:36;;;;;;;6.97;4.70;;;23.80;83.60;;;;;;5116934;28;20440;-46
2021/06/23 10:57:23;;;;;;;6.93;4.20;;;23.50;84.80;;;;;;5116819;28;20456;-52
2021/06/23 10:59:51;;;;;;;4.50;4.10;;;23.40;86.50;;;;;;5116658;28;20519;-46
2021/06/23 11:02:18;;;;;;;6.30;4.30;;;23.30;87.40;;;;;;5117257;28;20441;-47
2021/06/23 11:05:07;;;;;;;7.40;4.23;;;23.20;88.90;;;;;;5116335;28;20483;-48
2021/06/23 11:07:43;;;;;;;10.47;4.53;;;23.10;89.90;;;;;;5116633;28;20913;-50
2021/06/23 11:10:30;;;;;;;10.83;4.17;;;23.10;90.70;;;;;;5116722;28;20421;-47
2021/06/23 11:12:59;;;;;;;11.47;4.87;;;23.00;91.30;;;;;;5116639;28;20490;-52
2021/06/23 11:15:35;;;;;;;11.67;4.40;;;22.90;92.30;;;;;;5116353;28;20460;-50
2021/06/23 11:18:24;;;;;;;6.93;4.40;;;22.80;92.80;;;;;;5116498;28;20433;-48
2021/06/23 11:20:52;;;;;;;7.97;3.90;;;22.70;92.20;;;;;;5116264;28;20475;-47
2021/06/23 11:23:42;;;;;;;5.60;4.37;;;22.50;93.10;;;;;;5116245;28;20488;-49
2021/06/23 11:26:31;;;;;;;5.23;4.60;;;22.40;93.40;;;;;;5116745;28;20521;-47
2021/06/23 11:29:20;;;;;;;11.80;4.70;;;22.30;93.80;;;;;;5116047;28;20445;-44
2021/06/23 11:31:50;;;;;;;10.63;4.80;;;22.20;94.60;;;;;;5115885;28;20543;-50
2021/06/23 11:34:46;;;;;;;11.00;4.97;;;22.10;95.90;;;;;;5116214;28;20465;-47
2021/06/23 11:37:15;;;;;;;10.10;4.70;;;22.10;96.70;;;;;;5115642;28;20457;-45
2021/06/23 11:39:43;;;;;;;7.00;5.00;;;22.00;98.10;;;;;;5116211;28;20444;-45
2021/06/23 11:42:12;;;;;;;15.60;4.57;;;21.90;99.20;;;;;;5115979;28;20440;-44
2021/06/23 11:44:39;;;;;;;12.57;4.97;;;21.90;99.40;;;;;;5115960;28;20859;-45
2021/06/23 11:47:07;;;;;;;5.47;4.30;;;21.90;99.90;;;;;;5116279;28;20454;-47
2021/06/23 11:49:35;;;;;;;6.53;4.67;;;22.00;99.90;;;;;;5115837;28;20442;-45
2021/06/23 11:52:04;;;;;;;8.03;4.27;;;22.00;99.80;;;;;;5115935;28;20491;-45
2021/06/23 11:54:31;;;;;;;7.57;6.37;;;22.00;99.90;;;;;;5116363;28;20464;-47
2021/06/23 11:56:58;;;;;;;9.47;4.87;;;22.00;99.90;;;;;;5115946;28;20445;-51
2021/06/23 11:59:26;;;;;;;5.00;4.60;;;22.00;99.90;;;;;;5115747;28;20826;-48
2021/06/23 12:01:53;;;;;;;10.40;4.47;;;22.00;99.90;;;;;;5115247;28;20970;-50
2021/06/23 12:04:19;;;;;;;6.27;4.30;;;22.10;99.90;;;;;;5115219;28;20537;-51
2021/06/23 12:06:46;;;;;;;8.50;3.87;;;22.00;99.80;;;;;;5115970;28;20755;-48
2021/06/23 12:09:13;;;;;;;6.67;4.60;;;22.00;99.90;;;;;;5115510;28;20446;-46
2021/06/23 12:11:40;;;;;;;9.73;4.77;;;21.90;99.90;;;;;;5115535;28;20456;-49
2021/06/23 12:14:06;;;;;;;7.13;4.20;;;21.70;99.90;;;;;;5115428;28;20901;-50
2021/06/23 12:16:35;;;;;;;5.93;3.83;;;21.70;99.90;;;;;;5115683;28;20806;-50
2021/06/23 12:19:02;;;;;;;7.60;4.17;;;21.60;99.90;;;;;;5115120;28;20460;-48
2021/06/23 12:21:29;;;;;;;12.97;4.73;;;21.50;99.90;;;;;;5115453;28;20444;-47
2021/06/23 12:23:56;;;;;;;6.83;4.90;;;21.50;99.90;;;;;;5115663;28;20477;-49
2021/06/23 12:26:23;;;;;;;9.30;4.73;;;21.40;99.90;;;;;;5115234;28;20831;-49
2021/06/23 12:28:50;;;;;;;10.67;5.17;;;21.40;99.90;;;;;;5115345;28;20516;-47
2021/06/23 12:31:16;;;;;;;9.40;4.90;;;21.40;99.90;;;;;;5114612;28;20472;-47
2021/06/23 12:33:46;;;;;;;8.33;5.70;;;21.30;99.90;;;;;;5114846;28;20509;-50
2021/06/23 12:36:13;;;;;;;8.80;5.17;;;21.20;99.90;;;;;;5115218;28;20436;-44
2021/06/23 12:38:40;;;;;;;7.90;5.20;;;21.10;99.90;;;;;;5114632;28;20447;-48
2021/06/23 12:41:07;;;;;;;7.60;6.07;;;21.00;99.90;;;;;;5114733;28;20960;-48
2021/06/23 12:43:33;;;;;;;8.70;6.17;;;20.90;99.90;;;;;;5114731;28;20851;-46
2021/06/23 12:46:00;;;;;;;7.70;5.53;;;20.90;99.90;;;;;;5114593;28;20901;-48
2021/06/23 12:48:27;;;;;;;12.37;6.40;;;20.80;99.90;;;;;;5114989;28;20440;-51
2021/06/23 12:50:55;;;;;;;10.77;6.20;;;20.80;99.90;;;;;;5115344;28;20548;-47
2021/06/23 12:53:22;;;;;;;9.97;6.80;;;20.80;99.90;;;;;;5114896;28;20486;-49
2021/06/23 12:55:49;;;;;;;20.53;7.53;;;20.90;99.90;;;;;;5114527;28;20522;-46
2021/06/23 12:58:16;;;;;;;8.30;6.87;;;20.90;99.90;;;;;;5114903;28;20445;-46
2021/06/23 13:00:43;;;;;;;10.03;6.53;;;21.00;99.90;;;;;;5114712;28;20465;-46
2021/06/23 13:03:10;;;;;;;8.40;5.30;;;21.10;99.90;;;;;;5115038;28;20441;-49
2021/06/23 13:05:37;;;;;;;8.70;5.50;;;21.10;99.90;;;;;;5114160;28;20441;-50
2021/06/23 13:08:07;;;;;;;11.23;6.30;;;21.10;99.90;;;;;;5114728;28;20529;-49
2021/06/23 13:10:33;;;;;;;6.70;5.47;;;21.20;99.90;;;;;;5115099;28;20448;-45
2021/06/23 13:13:00;;;;;;;13.70;6.10;;;21.30;99.90;;;;;;5114530;28;20444;-48
2021/06/23 13:15:28;;;;;;;8.20;5.40;;;21.30;99.90;;;;;;5114843;28;20441;-45
2021/06/23 13:17:54;;;;;;;11.37;6.07;;;21.20;99.90;;;;;;5115122;28;20968;-50
2021/06/23 13:20:24;;;;;;;6.20;5.60;;;21.10;99.90;;;;;;5114629;28;20441;-45
2021/06/23 13:22:51;;;;;;;12.03;7.30;;;21.10;99.90;;;;;;5114626;28;20459;-51
2021/06/23 13:25:20;;;;;;;8.57;5.73;;;21.10;99.90;;;;;;5114382;28;20495;-48
2021/06/23 13:27:47;;;;;;;7.47;6.17;;;21.20;99.90;;;;;;5114519;28;20913;-52
2021/06/23 13:30:14;;;;;;;9.93;6.33;;;21.20;99.90;;;;;;5114366;28;20960;-49
2021/06/23 13:32:41;;;;;;;9.37;5.53;;;21.10;99.90;;;;;;5114484;28;20452;-49
2021/06/23 13:35:09;;;;;;;7.90;5.80;;;21.10;99.90;;;;;;5114864;28;20509;-44
2021/06/23 15:36:21;;;;;;;10.53;6.10;;;22.60;99.90;;;;;;5609202;22;20704;-54
2021/06/23 15:38:48;;;;;;;7.20;5.40;;;22.90;99.90;;;;;;5114034;28;20773;-44
2021/06/23 15:41:19;;;;;;;10.07;5.30;;;23.00;99.90;;;;;;5112172;28;20536;-45
2021/06/23 15:43:45;;;;;;;9.00;5.90;;;23.10;99.90;;;;;;5115905;28;20466;-44
2021/06/23 15:46:13;;;;;;;9.87;5.23;;;23.10;99.90;;;;;;5099522;28;20449;-46
2021/06/23 15:48:41;;;;;;;8.60;5.20;;;23.10;99.90;;;;;;5102045;28;20531;-49
2021/06/23 15:51:07;;;;;;;10.63;6.37;;;23.10;99.90;;;;;;5115410;28;20510;-44
2021/06/23 15:53:35;;;;;;;16.37;5.17;;;23.10;99.90;;;;;;5114739;27;20445;-43
2021/06/23 15:56:02;;;;;;;8.97;5.53;;;23.10;99.90;;;;;;5121650;27;20445;-46
2021/06/23 15:58:32;;;;;;;17.03;6.70;;;23.10;99.90;;;;;;5095279;28;20462;-49
2021/06/23 16:01:00;;;;;;;9.93;5.23;;;23.00;99.90;;;;;;5094939;27;20449;-48
2021/06/23 16:03:28;;;;;;;7.67;5.20;;;23.00;99.90;;;;;;5118328;27;20467;-46
2021/06/23 16:05:57;;;;;;;11.33;5.33;;;22.90;99.90;;;;;;5116697;27;20823;-48
2021/06/23 16:08:24;;;;;;;8.87;4.90;;;22.80;99.90;;;;;;5106122;27;20440;-45
2021/06/23 16:10:53;;;;;;;9.17;5.10;;;22.80;99.90;;;;;;5108005;27;20448;-45
2021/06/23 16:13:21;;;;;;;20.03;5.57;;;22.60;99.90;;;;;;5100876;27;20437;-43
2021/06/23 16:15:48;;;;;;;13.93;5.70;;;22.50;99.90;;;;;;5098691;28;20844;-45
2021/06/23 16:18:16;;;;;;;9.67;6.20;;;22.40;99.90;;;;;;5111022;27;20447;-46
2021/06/23 16:20:45;;;;;;;10.07;5.20;;;22.30;99.90;;;;;;5124028;27;20443;-45
2021/06/23 16:23:12;;;;;;;12.33;5.67;;;22.20;99.90;;;;;;5119694;27;20930;-47
2021/06/23 16:25:39;;;;;;;8.10;5.40;;;22.10;99.90;;;;;;5107331;27;20542;-49
2021/06/23 16:28:07;;;;;;;12.17;6.03;;;22.10;99.90;;;;;;5114921;27;20517;-46
2021/06/23 16:30:37;;;;;;;13.83;4.87;;;22.10;99.90;;;;;;5106033;27;20445;-46
2021/06/23 16:33:04;;;;;;;6.37;5.37;;;22.00;99.90;;;;;;5099165;28;20449;-46
2021/06/23 16:35:31;;;;;;;16.60;8.23;;;22.00;99.90;;;;;;5106696;28;20485;-45
2021/06/23 16:37:57;;;;;;;16.87;6.50;;;21.90;99.90;;;;;;5112139;27;20447;-48
2021/06/23 16:40:24;;;;;;;36.67;15.80;;;22.00;99.90;;;;;;5123963;27;20510;-47
2021/06/23 16:42:51;;;;;;;34.20;12.73;;;21.90;99.90;;;;;;5126002;27;20433;-49
2021/06/23 16:45:19;;;;;;;9.70;6.20;;;21.80;99.90;;;;;;5134879;27;20477;-47
2021/06/23 16:47:45;;;;;;;12.47;7.27;;;21.80;99.90;;;;;;5120630;27;20486;-45
2021/06/23 16:50:12;;;;;;;9.00;5.70;;;21.80;99.90;;;;;;5100250;28;20461;-46
2021/06/23 16:52:39;;;;;;;9.83;7.23;;;21.80;99.90;;;;;;5095563;28;20446;-49
2021/06/23 16:55:07;;;;;;;16.30;8.47;;;21.80;99.90;;;;;;5095329;28;20449;-48
2021/06/23 16:57:34;;;;;;;8.07;6.00;;;21.80;99.90;;;;;;5113573;27;20958;-49
2021/06/23 17:00:05;;;;;;;13.53;5.40;;;21.90;99.90;;;;;;5104800;27;20941;-47
2021/06/23 17:02:33;;;;;;;8.13;5.43;;;21.80;99.90;;;;;;5131145;27;20878;-52
2021/06/23 17:05:01;;;;;;;12.00;5.80;;;21.80;99.90;;;;;;5100910;28;20545;-44
2021/06/23 17:07:31;;;;;;;10.40;7.30;;;21.70;99.90;;;;;;5096453;28;20449;-47
2021/06/23 17:09:58;;;;;;;7.13;5.40;;;21.70;99.90;;;;;;5123554;28;20519;-44
2021/06/23 17:12:25;;;;;;;9.30;5.43;;;21.80;99.90;;;;;;5118284;28;20483;-45
2021/06/23 17:14:52;;;;;;;7.33;6.17;;;21.80;99.90;;;;;;5112813;28;20473;-46
2021/06/23 17:17:19;;;;;;;8.97;5.27;;;21.70;99.90;;;;;;5103645;28;20502;-45
2021/06/23 17:19:47;;;;;;;9.90;6.30;;;21.60;99.90;;;;;;5121628;28;20440;-47
2021/06/23 17:22:17;;;;;;;7.07;5.30;;;21.70;99.90;;;;;;5127542;28;20467;-47
2021/06/23 17:24:46;;;;;;;8.00;5.20;;;21.60;99.90;;;;;;5097823;28;20499;-47
2021/06/23 17:27:15;;;;;;;9.33;6.30;;;21.50;99.90;;;;;;5115682;28;21099;-49
2021/06/23 17:29:46;;;;;;;16.70;6.67;;;21.60;99.90;;;;;;5120973;28;20457;-49
2021/06/23 17:32:15;;;;;;;6.50;5.30;;;21.70;99.90;;;;;;5123101;28;20442;-46
2021/06/23 17:34:44;;;;;;;10.30;6.57;;;21.60;99.90;;;;;;5107487;28;20509;-48
2021/06/23 17:37:13;;;;;;;10.73;6.20;;;21.60;99.90;;;;;;5095384;28;20478;-48
2021/06/23 17:39:42;;;;;;;14.90;6.07;;;21.70;99.90;;;;;;5105867;28;20456;-45
2021/06/23 17:42:09;;;;;;;8.60;6.03;;;21.80;99.90;;;;;;5105546;28;20480;-47
2021/06/23 17:44:36;;;;;;;6.50;4.90;;;21.70;99.90;;;;;;5093520;28;20477;-48
2021/06/23 17:47:03;;;;;;;8.10;4.90;;;21.70;99.90;;;;;;5113464;28;20449;-43
2021/06/23 17:49:30;;;;;;;8.67;6.27;;;21.60;99.90;;;;;;5110947;28;20452;-49
2021/06/23 17:51:56;;;;;;;14.40;6.17;;;21.60;99.90;;;;;;5123153;27;20464;-43
2021/06/23 17:54:24;;;;;;;11.97;6.03;;;21.60;99.90;;;;;;5126270;27;20487;-46
2021/06/23 17:56:51;;;;;;;12.00;6.10;;;21.50;99.90;;;;;;5126424;27;20442;-44
2021/06/23 17:59:18;;;;;;;10.00;5.37;;;21.60;99.90;;;;;;5128899;27;20454;-45
2021/06/23 18:01:44;;;;;;;6.80;5.20;;;21.50;99.90;;;;;;5112143;27;20461;-44
2021/06/23 18:04:11;;;;;;;10.87;5.70;;;21.50;99.90;;;;;;5130382;27;20447;-46
2021/06/23 18:06:38;;;;;;;13.40;6.30;;;21.50;99.90;;;;;;5110134;27;20452;-44
2021/06/23 18:09:06;;;;;;;12.37;5.40;;;21.50;99.90;;;;;;5120402;27;20449;-44
2021/06/23 18:11:36;;;;;;;11.17;5.20;;;21.40;99.90;;;;;;5104228;27;20449;-43
2021/06/23 18:14:06;;;;;;;8.30;5.07;;;21.40;99.90;;;;;;5122168;27;20927;-46
2021/06/23 18:16:33;;;;;;;6.40;5.10;;;21.40;99.90;;;;;;5115360;27;20448;-46
2021/06/23 18:19:00;;;;;;;7.77;5.10;;;21.40;99.90;;;;;;5129412;27;20431;-45
2021/06/23 18:21:27;;;;;;;6.67;4.10;;;21.30;99.90;;;;;;5122186;27;20909;-46
2021/06/23 18:23:54;;;;;;;6.13;4.30;;;21.20;99.90;;;;;;5109952;27;20963;-45
2021/06/23 18:26:20;;;;;;;14.03;5.10;;;21.20;99.90;;;;;;5133361;27;20479;-47
2021/06/23 18:28:48;;;;;;;8.47;4.77;;;21.10;99.90;;;;;;5100393;27;20511;-48
2021/06/23 18:31:15;;;;;;;7.87;4.60;;;21.00;99.90;;;;;;5119311;27;20551;-46
2021/06/23 18:33:42;;;;;;;9.17;7.40;;;21.00;99.90;;;;;;5116931;27;20495;-43
2021/06/23 18:36:09;;;;;;;12.47;4.97;;;21.00;99.90;;;;;;5134748;27;20472;-47
2021/06/23 18:38:35;;;;;;;6.80;5.57;;;20.90;99.90;;;;;;5133942;27;20455;-46
2021/06/23 18:41:02;;;;;;;12.60;5.10;;;20.80;99.90;;;;;;5138219;27;20444;-46
2021/06/23 18:43:29;;;;;;;8.27;5.00;;;20.80;99.90;;;;;;5126904;27;20441;-47
2021/06/23 18:45:57;;;;;;;8.30;5.47;;;20.70;99.90;;;;;;5130850;27;20463;-43
2021/06/23 18:48:24;;;;;;;6.77;4.43;;;20.60;99.90;;;;;;5123652;27;20436;-47
2021/06/23 18:50:50;;;;;;;6.17;4.10;;;20.50;99.90;;;;;;5123484;27;20459;-46
2021/06/23 18:53:17;;;;;;;8.43;4.40;;;20.50;99.90;;;;;;5127336;27;20830;-46
2021/06/23 18:55:44;;;;;;;4.63;3.87;;;20.40;99.90;;;;;;5124736;27;20922;-46
2021/06/23 18:58:13;;;;;;;9.23;3.70;;;20.30;99.90;;;;;;5131520;27;20516;-48
2021/06/23 19:00:41;;;;;;;4.67;3.83;;;20.30;99.90;;;;;;5122821;27;20460;-46
2021/06/23 19:03:12;;;;;;;10.70;5.00;;;20.30;99.90;;;;;;5125051;27;20508;-48
2021/06/23 19:05:38;;;;;;;4.77;4.30;;;20.30;99.90;;;;;;5126105;27;20568;-47
2021/06/23 19:08:06;;;;;;;6.23;4.87;;;20.20;99.90;;;;;;5129424;27;20471;-48
2021/06/23 19:10:33;;;;;;;5.90;4.00;;;20.20;99.90;;;;;;5121452;27;20444;-45
2021/06/23 19:13:00;;;;;;;7.97;4.93;;;20.20;99.90;;;;;;5125375;27;20449;-46
2021/06/23 19:15:27;;;;;;;10.80;7.03;;;20.20;99.90;;;;;;5119719;27;20451;-46
2021/06/23 19:17:53;;;;;;;6.67;5.53;;;20.20;99.90;;;;;;5113509;27;20460;-47
2021/06/23 19:20:22;;;;;;;4.80;3.63;;;20.20;99.90;;;;;;5123885;27;20435;-45
2021/06/23 19:22:49;;;;;;;10.13;4.70;;;20.20;99.90;;;;;;5128370;27;20443;-43
2021/06/23 19:25:16;;;;;;;10.23;5.50;;;20.20;99.90;;;;;;5123737;27;20612;-50
2021/06/23 19:27:43;;;;;;;5.20;4.50;;;20.20;99.90;;;;;;5112138;27;20928;-45
2021/06/23 19:30:14;;;;;;;6.20;4.33;;;20.20;99.90;;;;;;5128083;27;20448;-50
2021/06/23 19:32:41;;;;;;;10.10;5.47;;;20.20;99.90;;;;;;5117363;27;20773;-45
2021/06/23 19:35:09;;;;;;;5.40;4.57;;;20.20;99.90;;;;;;5124763;27;20807;-44
2021/06/23 19:37:39;;;;;;;5.17;4.20;;;20.20;99.90;;;;;;5145408;27;20432;-49
2021/06/23 19:40:08;;;;;;;9.50;4.90;;;20.10;99.90;;;;;;5128848;27;20538;-45
2021/06/23 19:42:34;;;;;;;5.30;4.07;;;20.10;99.90;;;;;;5129396;27;20528;-48
2021/06/23 19:45:01;;;;;;;5.83;3.90;;;20.00;99.90;;;;;;5115776;27;20480;-48
2021/06/23 19:47:28;;;;;;;7.60;3.80;;;20.00;99.90;;;;;;5120972;27;21081;-43
2021/06/23 19:49:54;;;;;;;10.73;4.23;;;20.00;99.90;;;;;;5126749;27;20439;-41
2021/06/23 19:52:21;;;;;;;6.80;4.30;;;20.00;99.90;;;;;;5124724;27;20452;-44
2021/06/23 19:54:50;;;;;;;6.90;4.00;;;19.90;99.90;;;;;;5126077;27;20455;-46
2021/06/23 19:57:17;;;;;;;7.00;4.27;;;19.90;99.90;;;;;;5126659;27;20787;-45
2021/06/23 19:59:44;;;;;;;5.90;4.50;;;19.90;99.90;;;;;;5130426;27;20511;-43
2021/06/23 20:02:11;;;;;;;5.13;4.13;;;19.80;99.90;;;;;;5127571;27;20440;-44
2021/06/23 20:04:38;;;;;;;8.00;4.27;;;19.80;99.90;;;;;;5131598;27;20448;-43
2021/06/23 20:07:05;;;;;;;5.90;4.20;;;19.80;99.90;;;;;;5131927;27;20484;-43
2021/06/23 20:09:31;;;;;;;9.37;4.37;;;19.80;99.90;;;;;;5129871;27;20444;-45
2021/06/23 20:11:59;;;;;;;7.87;4.00;;;19.70;99.90;;;;;;5131612;27;20445;-43
2021/06/23 20:14:26;;;;;;;10.13;4.87;;;19.70;99.90;;;;;;5130958;27;20469;-46
2021/06/23 20:16:53;;;;;;;10.63;4.87;;;19.70;99.90;;;;;;5126807;27;20658;-42
2021/06/23 20:19:19;;;;;;;6.40;4.03;;;19.70;99.90;;;;;;5131888;27;20509;-42